Time,TemperatureF,DewpointF,PressureIn,WindDirection,WindDirectionDegrees,WindSpeedMPH,WindSpeedGustMPH,Humidity,HourlyPrecipIn,Conditions,Clouds,dailyrainin,SoftwareType,DateUTC
2013-04-26 00:01:00,54.0,28.0,-100.00,East,90,6.0,12.0,38,0.00,,,0.00,,2013-04-26 00:01:00,
2013-04-26 00:11:00,54.0,30.0,-100.00,East,100,9.0,12.0,40,0.00,,,0.00,,2013-04-26 00:11:00,
2013-04-26 00:21:00,53.0,28.0,-100.00,East,85,9.0,12.0,39,0.00,,,0.00,,2013-04-26 00:21:00,
2013-04-26 00:31:00,53.0,34.0,-100.00,East,80,9.0,12.0,47,0.00,,,0.00,,2013-04-26 00:31:00,
2013-04-26 00:41:00,53.0,32.0,-100.00,ENE,70,7.0,12.0,44,0.00,,,0.00,,2013-04-26 00:41:00,
2013-04-26 00:51:00,52.0,32.0,-100.00,ENE,65,7.0,9.0,45,0.00,,,0.00,,2013-04-26 00:51:00,
2013-04-26 01:01:00,51.0,32.0,-100.00,ENE,65,9.0,10.0,49,0.00,,,0.00,,2013-04-26 01:01:00,
2013-04-26 01:11:00,49.0,34.0,-100.00,ENE,60,7.0,9.0,56,0.00,,,0.00,,2013-04-26 01:11:00,
2013-04-26 01:21:00,48.0,34.0,-100.00,NE,55,7.0,10.0,57,0.00,,,0.00,,2013-04-26 01:21:00,
2013-04-26 01:31:00,47.0,34.0,-100.00,ENE,60,9.0,11.0,58,0.00,,,0.00,,2013-04-26 01:31:00,
2013-04-26 01:41:00,46.0,34.0,-100.00,NE,55,7.0,9.0,60,0.00,,,0.00,,2013-04-26 01:41:00,
2013-04-26 01:52:00,46.0,34.0,-100.00,ENE,60,9.0,11.0,62,0.00,,,0.00,,2013-04-26 01:52:00,
2013-04-26 02:02:00,46.0,34.0,-100.00,ENE,60,8.0,12.0,61,0.00,,,0.00,,2013-04-26 02:02:00,
2013-04-26 02:11:00,46.0,34.0,-100.00,ENE,60,9.0,12.0,62,0.00,,,0.00,,2013-04-26 02:11:00,
2013-04-26 02:21:00,46.0,34.0,-100.00,ENE,65,11.0,13.0,62,0.00,,,0.00,,2013-04-26 02:21:00,
2013-04-26 02:32:00,45.0,34.0,-100.00,ENE,60,9.0,12.0,65,0.00,,,0.00,,2013-04-26 02:32:00,
2013-04-26 02:42:00,45.0,34.0,-100.00,ENE,60,9.0,13.0,65,0.00,,,0.00,,2013-04-26 02:42:00,
2013-04-26 02:51:00,45.0,34.0,-100.00,ENE,65,9.0,11.0,65,0.00,,,0.00,,2013-04-26 02:51:00,
2013-04-26 03:01:00,45.0,34.0,-100.00,ENE,65,10.0,13.0,64,0.00,,,0.00,,2013-04-26 03:01:00,
2013-04-26 03:11:00,45.0,34.0,-100.00,ENE,70,9.0,13.0,63,0.00,,,0.00,,2013-04-26 03:11:00,
2013-04-26 03:21:00,45.0,34.0,-100.00,ENE,65,9.0,12.0,64,0.00,,,0.00,,2013-04-26 03:21:00,
2013-04-26 03:33:00,45.0,34.0,-100.00,ENE,70,11.0,15.0,63,0.00,,,0.00,,2013-04-26 03:33:00,
2013-04-26 03:43:00,45.0,34.0,-100.00,ENE,70,11.0,16.0,64,0.00,,,0.00,,2013-04-26 03:43:00,
2013-04-26 03:53:00,44.0,34.0,-100.00,ENE,70,12.0,16.0,65,0.00,,,0.00,,2013-04-26 03:53:00,
2013-04-26 04:02:00,44.0,34.0,-100.00,ENE,70,11.0,15.0,67,0.00,,,0.00,,2013-04-26 04:02:00,
2013-04-26 04:12:00,44.0,34.0,-100.00,ENE,65,9.0,13.0,66,0.00,,,0.00,,2013-04-26 04:12:00,
2013-04-26 04:22:00,44.0,34.0,-100.00,ENE,70,11.0,15.0,64,0.00,,,0.00,,2013-04-26 04:22:00,
2013-04-26 04:32:00,45.0,32.0,-100.00,ENE,75,11.0,16.0,62,0.00,,,0.00,,2013-04-26 04:32:00,
2013-04-26 04:43:00,44.0,32.0,-100.00,ENE,70,10.0,17.0,63,0.00,,,0.00,,2013-04-26 04:43:00,
2013-04-26 04:52:00,45.0,32.0,-100.00,ENE,75,11.0,17.0,61,0.00,,,0.00,,2013-04-26 04:52:00,
2013-04-26 05:02:00,45.0,32.0,-100.00,ENE,70,13.0,17.0,60,0.00,,,0.00,,2013-04-26 05:02:00,
2013-04-26 05:12:00,45.0,32.0,-100.00,ENE,75,12.0,20.0,59,0.00,,,0.00,,2013-04-26 05:12:00,
2013-04-26 05:22:00,45.0,32.0,-100.00,ENE,75,12.0,19.0,61,0.00,,,0.00,,2013-04-26 05:22:00,
2013-04-26 05:32:00,46.0,32.0,-100.00,East,80,9.0,16.0,59,0.00,,,0.00,,2013-04-26 05:32:00,
2013-04-26 05:42:00,46.0,34.0,-100.00,East,95,13.0,17.0,60,0.00,,,0.00,,2013-04-26 05:42:00,
2013-04-26 05:52:00,46.0,32.0,-100.00,East,85,14.0,21.0,59,0.00,,,0.00,,2013-04-26 05:52:00,
2013-04-26 06:02:00,46.0,32.0,-100.00,ENE,75,14.0,21.0,59,0.00,,,0.00,,2013-04-26 06:02:00,
2013-04-26 06:11:00,45.0,32.0,-100.00,East,80,13.0,21.0,60,0.00,,,0.00,,2013-04-26 06:11:00,
2013-04-26 06:21:00,45.0,34.0,-100.00,ENE,75,12.0,19.0,63,0.00,,,0.00,,2013-04-26 06:21:00,
2013-04-26 06:32:00,46.0,34.0,-100.00,East,90,17.0,23.0,60,0.00,,,0.00,,2013-04-26 06:32:00,
2013-04-26 06:41:00,47.0,34.0,-100.00,East,95,17.0,26.0,59,0.00,,,0.00,,2013-04-26 06:41:00,
2013-04-26 06:51:00,47.0,34.0,-100.00,East,95,21.0,30.0,58,0.00,,,0.00,,2013-04-26 06:51:00,
2013-04-26 07:01:00,47.0,34.0,-100.00,East,95,19.0,27.0,58,0.00,,,0.00,,2013-04-26 07:01:00,
2013-04-26 07:11:00,47.0,34.0,-100.00,East,95,18.0,26.0,59,0.00,,,0.00,,2013-04-26 07:11:00,
2013-04-26 07:22:00,48.0,34.0,-100.00,East,95,19.0,28.0,58,0.00,,,0.00,,2013-04-26 07:22:00,
2013-04-26 07:31:00,48.0,34.0,-100.00,East,100,16.0,24.0,60,0.00,,,0.00,,2013-04-26 07:31:00,
2013-04-26 07:42:00,48.0,36.0,-100.00,East,95,17.0,22.0,60,0.00,,,0.00,,2013-04-26 07:42:00,
2013-04-26 07:52:00,47.0,34.0,-100.00,East,95,16.0,21.0,61,0.00,,,0.00,,2013-04-26 07:52:00,
2013-04-26 08:02:00,46.0,34.0,-100.00,East,90,17.0,22.0,63,0.00,,,0.00,,2013-04-26 08:02:00,
2013-04-26 08:11:00,46.0,34.0,-100.00,East,95,18.0,23.0,64,0.00,,,0.00,,2013-04-26 08:11:00,
2013-04-26 08:21:00,46.0,34.0,-100.00,East,90,18.0,27.0,64,0.00,,,0.00,,2013-04-26 08:21:00,
2013-04-26 08:31:00,46.0,34.0,-100.00,East,100,17.0,23.0,64,0.00,,,0.00,,2013-04-26 08:31:00,
2013-04-26 08:42:00,45.0,36.0,-100.00,East,100,14.0,19.0,67,0.00,,,0.00,,2013-04-26 08:42:00,
2013-04-26 08:51:00,46.0,36.0,-100.00,East,90,16.0,21.0,66,0.00,,,0.00,,2013-04-26 08:51:00,
2013-04-26 09:01:00,46.0,36.0,-100.00,ESE,115,20.0,31.0,66,0.00,,,0.00,,2013-04-26 09:01:00,
2013-04-26 09:11:00,46.0,36.0,-100.00,ESE,115,16.0,25.0,68,0.00,,,0.00,,2013-04-26 09:11:00,
2013-04-26 09:21:00,46.0,36.0,-100.00,ESE,120,16.0,25.0,67,0.00,,,0.00,,2013-04-26 09:21:00,
2013-04-26 09:33:00,46.0,37.0,-100.00,ESE,105,19.0,24.0,69,0.00,,,0.00,,2013-04-26 09:33:00,
2013-04-26 09:42:00,46.0,37.0,-100.00,ESE,105,13.0,20.0,69,0.00,,,0.00,,2013-04-26 09:42:00,
2013-04-26 09:53:00,46.0,37.0,-100.00,ESE,120,16.0,22.0,68,0.00,,,0.00,,2013-04-26 09:53:00,
2013-04-26 10:03:00,47.0,37.0,-100.00,ESE,105,18.0,24.0,68,0.00,,,0.00,,2013-04-26 10:03:00,
2013-04-26 10:12:00,45.0,37.0,-100.00,ESE,110,12.0,22.0,71,0.00,,,0.00,,2013-04-26 10:12:00,
2013-04-26 10:23:00,46.0,37.0,-100.00,ESE,110,14.0,19.0,69,0.00,,,0.00,,2013-04-26 10:23:00,
2013-04-26 10:33:00,46.0,37.0,-100.00,ESE,110,14.0,23.0,70,0.00,,,0.00,,2013-04-26 10:33:00,
2013-04-26 10:42:00,45.0,37.0,-100.00,East,100,11.0,19.0,71,0.00,,,0.00,,2013-04-26 10:42:00,
2013-04-26 10:52:00,44.0,37.0,-100.00,East,100,12.0,16.0,74,0.00,,,0.00,,2013-04-26 10:52:00,
2013-04-26 11:02:00,43.0,37.0,-100.00,East,100,11.0,17.0,77,0.00,,,0.00,,2013-04-26 11:02:00,
2013-04-26 11:11:00,42.0,37.0,-100.00,East,90,9.0,14.0,79,0.00,,,0.00,,2013-04-26 11:11:00,
2013-04-26 11:22:00,43.0,37.0,-100.00,East,90,8.0,12.0,80,0.00,,,0.00,,2013-04-26 11:22:00,
2013-04-26 11:32:00,43.0,37.0,-100.00,East,95,8.0,12.0,81,0.00,,,0.00,,2013-04-26 11:32:00,
2013-04-26 11:41:00,42.0,37.0,-100.00,East,85,7.0,11.0,82,0.00,,,0.00,,2013-04-26 11:41:00,
2013-04-26 11:52:00,42.0,37.0,-100.00,East,100,7.0,10.0,82,0.00,,,0.00,,2013-04-26 11:52:00,
2013-04-26 12:01:00,43.0,37.0,-100.00,ESE,115,7.0,12.0,81,0.00,,,0.00,,2013-04-26 12:01:00,
2013-04-26 12:11:00,44.0,37.0,-100.00,ESE,110,8.0,11.0,81,0.00,,,0.00,,2013-04-26 12:11:00,
2013-04-26 12:21:00,45.0,39.0,-100.00,ESE,110,9.0,13.0,80,0.00,,,0.00,,2013-04-26 12:21:00,
2013-04-26 12:32:00,45.0,39.0,-100.00,ESE,110,9.0,12.0,77,0.00,,,0.00,,2013-04-26 12:32:00,
2013-04-26 12:41:00,47.0,39.0,-100.00,ESE,115,8.0,12.0,75,0.00,,,0.00,,2013-04-26 12:41:00,
2013-04-26 12:52:00,49.0,39.0,-100.00,ESE,115,12.0,17.0,70,0.00,,,0.00,,2013-04-26 12:52:00,
2013-04-26 13:01:00,50.0,39.0,-100.00,ESE,110,12.0,19.0,67,0.00,,,0.00,,2013-04-26 13:01:00,
2013-04-26 13:11:00,52.0,39.0,-100.00,ESE,115,20.0,26.0,61,0.00,,,0.00,,2013-04-26 13:11:00,
2013-04-26 13:21:00,53.0,39.0,-100.00,ESE,120,16.0,25.0,58,0.00,,,0.00,,2013-04-26 13:21:00,
2013-04-26 13:31:00,53.0,39.0,-100.00,SE,130,17.0,26.0,59,0.00,,,0.00,,2013-04-26 13:31:00,
2013-04-26 13:41:00,53.0,39.0,-100.00,SE,125,16.0,26.0,58,0.00,,,0.00,,2013-04-26 13:41:00,
2013-04-26 13:52:00,54.0,39.0,-100.00,SE,125,16.0,26.0,59,0.00,,,0.00,,2013-04-26 13:52:00,
2013-04-26 14:01:00,55.0,41.0,-100.00,SE,135,12.0,22.0,57,0.00,,,0.00,,2013-04-26 14:01:00,
2013-04-26 14:11:00,55.0,41.0,-100.00,SE,140,12.0,22.0,56,0.00,,,0.00,,2013-04-26 14:11:00,
2013-04-26 14:21:00,56.0,39.0,-100.00,SE,145,15.0,22.0,53,0.00,,,0.00,,2013-04-26 14:21:00,
2013-04-26 14:30:00,59.0,39.0,-100.00,SE,135,14.0,25.0,47,0.00,,,0.00,,2013-04-26 14:30:00,
2013-04-26 14:32:00,58.0,39.0,-100.00,SE,130,13.0,22.0,49,0.00,,,0.00,,2013-04-26 14:32:00,
2013-04-26 14:41:00,58.0,39.0,-100.00,SE,145,17.0,27.0,47,0.00,,,0.00,,2013-04-26 14:41:00,
2013-04-26 14:51:00,59.0,39.0,-100.00,SE,135,14.0,25.0,47,0.00,,,0.00,,2013-04-26 14:51:00,
2013-04-26 15:01:00,59.0,39.0,-100.00,SE,135,14.0,25.0,47,0.00,,,0.00,,2013-04-26 15:01:00,
2013-04-26 15:12:00,59.0,39.0,-100.00,SE,135,14.0,25.0,47,0.00,,,0.00,,2013-04-26 15:12:00,
2013-04-26 15:21:00,59.0,39.0,-100.00,SE,135,14.0,25.0,47,0.00,,,0.00,,2013-04-26 15:21:00,
2013-04-26 15:53:00,62.0,39.0,-100.00,SSE,150,15.0,26.0,42,0.00,,,0.00,,2013-04-26 15:53:00,
2013-04-26 16:03:00,62.0,39.0,-100.00,SE,145,15.0,24.0,42,0.00,,,0.00,,2013-04-26 16:03:00,
2013-04-26 16:12:00,63.0,39.0,-100.00,SSE,155,16.0,24.0,42,0.00,,,0.00,,2013-04-26 16:12:00,
2013-04-26 16:23:00,63.0,37.0,-100.00,SSE,160,18.0,22.0,39,0.00,,,0.00,,2013-04-26 16:23:00,
2013-04-26 16:33:00,64.0,37.0,-100.00,South,170,17.0,22.0,38,0.00,,,0.00,,2013-04-26 16:33:00,
2013-04-26 16:42:00,64.0,39.0,-100.00,South,170,15.0,22.0,39,0.00,,,0.00,,2013-04-26 16:42:00,
2013-04-26 16:52:00,65.0,39.0,-100.00,SSE,165,14.0,19.0,38,0.00,,,0.00,,2013-04-26 16:52:00,
2013-04-26 17:02:00,65.0,39.0,-100.00,SSE,150,12.0,21.0,38,0.00,,,0.00,,2013-04-26 17:02:00,
2013-04-26 17:12:00,65.0,39.0,-100.00,SSE,165,13.0,24.0,38,0.00,,,0.00,,2013-04-26 17:12:00,
2013-04-26 17:21:00,65.0,39.0,-100.00,SSE,160,14.0,24.0,38,0.00,,,0.00,,2013-04-26 17:21:00,
2013-04-26 17:31:00,66.0,39.0,-100.00,SE,140,13.0,20.0,37,0.00,,,0.00,,2013-04-26 17:31:00,
2013-04-26 17:41:00,68.0,39.0,-100.00,SSE,165,13.0,21.0,35,0.00,,,0.00,,2013-04-26 17:41:00,
2013-04-26 17:51:00,66.0,37.0,-100.00,SSE,165,15.0,19.0,34,0.00,,,0.00,,2013-04-26 17:51:00,
2013-04-26 18:02:00,67.0,39.0,-100.00,South,175,14.0,23.0,34,0.00,,,0.00,,2013-04-26 18:02:00,
2013-04-26 18:11:00,67.0,37.0,-100.00,SSE,165,15.0,21.0,33,0.00,,,0.00,,2013-04-26 18:11:00,
2013-04-26 18:22:00,68.0,39.0,-100.00,ESE,120,13.0,21.0,33,0.00,,,0.00,,2013-04-26 18:22:00,
2013-04-26 18:33:00,69.0,39.0,-100.00,SSE,165,10.0,24.0,34,0.00,,,0.00,,2013-04-26 18:33:00,
2013-04-26 18:41:00,68.0,39.0,-100.00,South,180,15.0,21.0,33,0.00,,,0.00,,2013-04-26 18:41:00,
2013-04-26 18:52:00,69.0,39.0,-100.00,SSE,150,12.0,17.0,32,0.00,,,0.00,,2013-04-26 18:52:00,
2013-04-26 19:01:00,69.0,39.0,-100.00,SE,140,11.0,21.0,33,0.00,,,0.00,,2013-04-26 19:01:00,
2013-04-26 19:11:00,69.0,37.0,-100.00,South,175,14.0,17.0,31,0.00,,,0.00,,2013-04-26 19:11:00,
2013-04-26 19:22:00,69.0,37.0,-100.00,SSE,150,12.0,19.0,30,0.00,,,0.00,,2013-04-26 19:22:00,
2013-04-26 19:31:00,69.0,36.0,-100.00,South,170,15.0,20.0,30,0.00,,,0.00,,2013-04-26 19:31:00,
2013-04-26 19:41:00,71.0,37.0,-100.00,SSE,165,11.0,20.0,29,0.00,,,0.00,,2013-04-26 19:41:00,
2013-04-26 19:52:00,71.0,37.0,-100.00,SSE,160,11.0,17.0,30,0.00,,,0.00,,2013-04-26 19:52:00,
2013-04-26 20:02:00,71.0,37.0,-100.00,South,180,14.0,23.0,29,0.00,,,0.00,,2013-04-26 20:02:00,
2013-04-26 20:11:00,71.0,39.0,-100.00,SSE,150,12.0,23.0,31,0.00,,,0.00,,2013-04-26 20:11:00,
2013-04-26 20:21:00,71.0,37.0,-100.00,SSE,165,11.0,17.0,30,0.00,,,0.00,,2013-04-26 20:21:00,
2013-04-26 20:32:00,71.0,37.0,-100.00,SSE,165,14.0,18.0,28,0.00,,,0.00,,2013-04-26 20:32:00,
2013-04-26 20:42:00,71.0,37.0,-100.00,SE,135,11.0,19.0,29,0.00,,,0.00,,2013-04-26 20:42:00,
2013-04-26 20:51:00,71.0,37.0,-100.00,SSE,160,9.0,19.0,28,0.00,,,0.00,,2013-04-26 20:51:00,
2013-04-26 21:01:00,72.0,37.0,-100.00,SSE,150,11.0,22.0,28,0.00,,,0.00,,2013-04-26 21:01:00,
2013-04-26 21:11:00,72.0,36.0,-100.00,SSE,165,16.0,19.0,27,0.00,,,0.00,,2013-04-26 21:11:00,
2013-04-26 21:21:00,72.0,36.0,-100.00,SE,145,9.0,20.0,26,0.00,,,0.00,,2013-04-26 21:21:00,
2013-04-26 21:32:00,72.0,34.0,-100.00,SSE,155,9.0,16.0,25,0.00,,,0.00,,2013-04-26 21:32:00,
2013-04-26 21:42:00,73.0,37.0,-100.00,SSE,155,9.0,16.0,26,0.00,,,0.00,,2013-04-26 21:42:00,
2013-04-26 21:52:00,72.0,36.0,-100.00,South,180,9.0,13.0,25,0.00,,,0.00,,2013-04-26 21:52:00,
2013-04-26 22:02:00,72.0,37.0,-100.00,SSE,160,10.0,16.0,27,0.00,,,0.00,,2013-04-26 22:02:00,
2013-04-26 22:12:00,72.0,36.0,-100.00,SSE,165,7.0,16.0,24,0.00,,,0.00,,2013-04-26 22:12:00,
2013-04-26 22:23:00,73.0,36.0,-100.00,SSE,160,9.0,19.0,25,0.00,,,0.00,,2013-04-26 22:23:00,
2013-04-26 22:33:00,73.0,36.0,-100.00,South,185,4.0,9.0,25,0.00,,,0.00,,2013-04-26 22:33:00,
2013-04-26 22:42:00,73.0,36.0,-100.00,South,180,6.0,24.0,26,0.00,,,0.00,,2013-04-26 22:42:00,
2013-04-26 22:52:00,72.0,34.0,-100.00,SSE,160,9.0,16.0,25,0.00,,,0.00,,2013-04-26 22:52:00,
2013-04-26 23:02:00,74.0,34.0,-100.00,SSW,195,7.0,11.0,23,0.00,,,0.00,,2013-04-26 23:02:00,
2013-04-26 23:11:00,73.0,34.0,-100.00,SW,215,12.0,17.0,24,0.00,,,0.00,,2013-04-26 23:11:00,
2013-04-26 23:21:00,73.0,34.0,-100.00,SW,215,8.0,11.0,24,0.00,,,0.00,,2013-04-26 23:21:00,
2013-04-26 23:32:00,73.0,34.0,-100.00,SW,230,7.0,16.0,24,0.00,,,0.00,,2013-04-26 23:32:00,
2013-04-26 23:42:00,72.0,36.0,-100.00,SSW,200,12.0,15.0,26,0.00,,,0.00,,2013-04-26 23:42:00,
2013-04-26 23:52:00,72.0,36.0,-100.00,SW,225,11.0,17.0,26,0.00,,,0.00,,2013-04-26 23:52:00,